createdAt,value
2022-08-25T00:00:23.280Z,2.55
2022-08-25T00:03:25.630Z,2.92
2022-08-25T00:06:28.734Z,2.75
2022-08-25T00:09:32.699Z,2.58
2022-08-25T00:12:34.400Z,3.22
2022-08-25T00:15:36.722Z,3.10
2022-08-25T00:18:39.914Z,3.20
2022-08-25T00:21:43.728Z,2.88
2022-08-25T00:24:45.800Z,3.08
2022-08-25T00:27:48.574Z,3.50
2022-08-25T00:30:50.337Z,3.10
2022-08-25T00:33:53.841Z,2.95
2022-08-25T00:36:55.823Z,3.33
2022-08-25T00:39:58.693Z,3.42
2022-08-25T00:43:00.604Z,3.25
2022-08-25T00:46:02.994Z,3.42
2022-08-25T00:49:36.341Z,3.47
2022-08-25T00:52:42.447Z,3.53
2022-08-25T00:55:44.300Z,3.45
2022-08-25T00:58:46.218Z,3.50
2022-08-25T01:01:49.402Z,3.38
2022-08-25T01:04:51.196Z,3.40
2022-08-25T01:07:58.650Z,3.40
2022-08-25T01:11:04.958Z,3.58
2022-08-25T01:14:07.488Z,3.83
2022-08-25T01:17:09.611Z,3.58
2022-08-25T01:20:11.531Z,3.60
2022-08-25T01:23:13.139Z,3.35
2022-08-25T01:26:25.093Z,3.70
2022-08-25T01:29:33.357Z,3.47
2022-08-25T01:32:35.170Z,3.72
2022-08-25T01:35:37.798Z,3.60
2022-08-25T01:38:39.673Z,3.33
2022-08-25T01:41:41.342Z,3.60
2022-08-25T01:44:45.222Z,3.67
2022-08-25T01:47:46.828Z,3.42
2022-08-25T01:50:49.917Z,3.92
2022-08-25T01:53:51.696Z,3.50
2022-08-25T01:56:53.314Z,3.80
2022-08-25T01:59:54.933Z,3.70
2022-08-25T02:02:57.546Z,4.00
2022-08-25T02:06:01.410Z,4.05
2022-08-25T02:09:10.044Z,3.78
2022-08-25T02:12:12.261Z,4.00
2022-08-25T02:15:14.497Z,3.70
2022-08-25T02:18:17.408Z,3.40
2022-08-25T02:21:19.076Z,3.80
2022-08-25T02:24:20.975Z,4.07
2022-08-25T02:27:23.430Z,3.50
2022-08-25T02:30:25.575Z,3.85
2022-08-25T02:33:27.263Z,3.90
2022-08-25T02:36:29.942Z,4.15
2022-08-25T02:39:31.624Z,3.90
2022-08-25T02:42:33.611Z,4.13
2022-08-25T02:45:36.746Z,4.10
2022-08-25T02:48:39.750Z,4.15
2022-08-25T02:51:41.406Z,4.20
2022-08-25T02:54:43.019Z,4.15
2022-08-25T02:57:44.878Z,4.28
2022-08-25T03:00:47.486Z,3.92
2022-08-25T03:03:49.769Z,4.20
2022-08-25T03:06:51.470Z,4.63
2022-08-25T03:09:54.267Z,4.35
2022-08-25T03:12:56.268Z,4.38
2022-08-25T03:15:59.567Z,4.30
2022-08-25T03:19:01.535Z,4.32
2022-08-25T03:22:04.595Z,4.35
2022-08-25T03:25:25.321Z,4.35
2022-08-25T03:28:29.910Z,5.00
2022-08-25T03:31:33.625Z,4.43
2022-08-25T03:34:35.803Z,4.72
2022-08-25T03:37:37.915Z,4.47
2022-08-25T03:40:39.596Z,4.50
2022-08-25T03:43:41.897Z,4.78
2022-08-25T03:46:48.773Z,4.45
2022-08-25T03:49:51.723Z,5.03
2022-08-25T03:52:56.281Z,4.90
2022-08-25T03:55:57.935Z,4.70
2022-08-25T03:59:00.097Z,4.97
2022-08-25T04:02:02.807Z,4.90
2022-08-25T04:05:04.848Z,4.93
2022-08-25T04:08:07.228Z,5.10
2022-08-25T04:11:13.137Z,4.93
2022-08-25T04:14:16.537Z,4.97
2022-08-25T04:17:18.565Z,4.78
2022-08-25T04:20:20.231Z,4.78
2022-08-25T04:23:21.850Z,4.63
2022-08-25T04:26:29.796Z,5.25
2022-08-25T04:29:31.465Z,5.05
2022-08-25T04:32:35.274Z,5.72
2022-08-25T04:35:36.987Z,4.80
2022-08-25T04:38:41.597Z,5.50
2022-08-25T04:41:43.880Z,5.35
2022-08-25T04:44:45.558Z,5.30
2022-08-25T04:47:49.646Z,5.45
2022-08-25T04:50:53.401Z,5.57
2022-08-25T04:54:01.135Z,5.53
2022-08-25T04:57:02.818Z,5.07
2022-08-25T05:00:05.747Z,6.20
2022-08-25T05:03:08.405Z,5.40
2022-08-25T05:06:15.287Z,5.90
2022-08-25T05:09:19.884Z,6.95
2022-08-25T05:12:23.520Z,5.82
2022-08-25T05:15:45.186Z,6.70
2022-08-25T05:18:48.535Z,6.95
2022-08-25T05:21:50.431Z,6.68
2022-08-25T05:24:52.163Z,6.70
2022-08-25T05:27:53.881Z,6.38
2022-08-25T05:31:00.002Z,6.93
2022-08-25T05:34:06.349Z,7.40
2022-08-25T05:37:11.972Z,7.15
2022-08-25T05:40:14.308Z,6.60
2022-08-25T05:43:16.013Z,6.50
2022-08-25T05:46:19.601Z,5.90
2022-08-25T05:49:21.410Z,5.60
2022-08-25T05:52:23.204Z,5.35
2022-08-25T05:55:24.837Z,5.68
2022-08-25T05:58:28.459Z,5.82
2022-08-25T06:01:48.701Z,5.93
2022-08-25T06:04:50.324Z,5.90
2022-08-25T06:07:52.352Z,6.47
2022-08-25T06:10:54.036Z,6.00
2022-08-25T06:13:55.618Z,6.82
2022-08-25T06:16:57.309Z,6.07
2022-08-25T06:19:59.153Z,6.55
2022-08-25T06:23:01.672Z,6.38
2022-08-25T06:26:03.580Z,6.40
2022-08-25T06:29:05.270Z,6.88
2022-08-25T06:32:07.041Z,7.13
2022-08-25T06:35:13.006Z,5.93
2022-08-25T06:38:14.922Z,6.38
2022-08-25T06:41:16.707Z,6.53
2022-08-25T06:44:18.581Z,6.70
2022-08-25T06:47:20.678Z,6.95
2022-08-25T06:50:22.431Z,6.97
2022-08-25T06:53:24.070Z,6.72
2022-08-25T06:56:26.634Z,6.63
2022-08-25T06:59:32.265Z,6.25
2022-08-25T07:02:35.327Z,6.10
2022-08-25T07:05:44.406Z,6.70
2022-08-25T07:08:47.395Z,6.80
2022-08-25T07:11:49.051Z,6.55
2022-08-25T07:15:10.096Z,6.97
2022-08-25T07:18:13.368Z,6.40
2022-08-25T07:21:15.560Z,6.30
2022-08-25T07:24:18.343Z,6.03
2022-08-25T07:27:20.540Z,6.75
2022-08-25T07:30:23.369Z,6.70
2022-08-25T07:33:25.316Z,6.70
2022-08-25T07:36:28.284Z,7.63
2022-08-25T07:39:30.758Z,7.15
2022-08-25T07:42:33.800Z,7.07
2022-08-25T07:45:48.141Z,7.18
2022-08-25T07:48:53.310Z,6.70
2022-08-25T07:52:05.661Z,6.93
2022-08-25T07:55:11.086Z,6.78
2022-08-25T07:58:13.291Z,7.32
2022-08-25T08:01:20.228Z,7.10
2022-08-25T08:04:22.343Z,7.10
2022-08-25T08:07:42.147Z,7.13
2022-08-25T08:11:04.356Z,7.43
2022-08-25T08:14:08.403Z,7.30
2022-08-25T08:17:11.234Z,7.22
2022-08-25T08:20:13.532Z,7.00
2022-08-25T08:23:17.559Z,7.10
2022-08-25T08:26:20.620Z,7.63
2022-08-25T08:29:23.192Z,7.32
2022-08-25T08:32:31.463Z,6.45
2022-08-25T08:35:37.212Z,7.28
2022-08-25T08:38:41.604Z,6.75
2022-08-25T08:42:13.128Z,6.68
2022-08-25T08:45:27.119Z,7.53
2022-08-25T08:48:44.790Z,6.50
2022-08-25T08:51:56.310Z,7.53
2022-08-25T08:55:02.940Z,7.40
2022-08-25T08:58:46.823Z,7.38
2022-08-25T09:02:03.885Z,7.40
2022-08-25T09:05:14.886Z,7.60
2022-08-25T09:08:20.416Z,7.38
2022-08-25T09:11:40.983Z,7.55
2022-08-25T09:14:42.617Z,7.75
2022-08-25T09:18:18.701Z,7.10
2022-08-25T09:21:36.270Z,6.93
2022-08-25T09:24:37.893Z,6.83
2022-08-25T09:27:44.253Z,6.82
2022-08-25T09:30:57.707Z,6.85
2022-08-25T09:34:03.684Z,7.05
2022-08-25T09:37:05.817Z,7.10
2022-08-25T09:40:12.189Z,6.85
2022-08-25T09:43:29.855Z,6.90
2022-08-25T09:46:31.765Z,6.88
2022-08-25T09:50:04.538Z,7.03
2022-08-25T09:53:14.786Z,6.70
2022-08-25T09:56:23.404Z,7.07
2022-08-25T09:59:35.738Z,6.93
2022-08-25T10:02:38.472Z,7.00
2022-08-25T10:05:49.354Z,6.55
2022-08-25T10:09:02.046Z,6.70
2022-08-25T10:12:27.963Z,6.78
2022-08-25T10:15:37.876Z,7.40
2022-08-25T10:18:39.820Z,6.65
2022-08-25T10:21:44.728Z,7.90
2022-08-25T10:24:46.601Z,7.40
2022-08-25T10:28:15.927Z,6.63
2022-08-25T10:31:45.243Z,7.18
2022-08-25T10:34:54.861Z,7.47
2022-08-25T10:38:02.731Z,6.70
2022-08-25T10:41:23.233Z,6.70
2022-08-25T10:44:58.748Z,6.93
2022-08-25T10:48:15.640Z,7.95
2022-08-25T10:51:43.211Z,7.22
2022-08-25T10:54:59.237Z,7.05
2022-08-25T10:58:30.808Z,8.00
2022-08-25T11:02:02.742Z,7.72
2022-08-25T11:05:12.739Z,6.88
2022-08-25T11:08:23.060Z,6.72
2022-08-25T11:11:36.973Z,6.97
2022-08-25T11:14:56.224Z,7.10
2022-08-25T11:18:17.105Z,7.13
2022-08-25T11:21:26.179Z,7.60
2022-08-25T11:24:54.093Z,8.02
2022-08-25T11:28:16.374Z,8.15
2022-08-25T11:31:20.088Z,7.20
2022-08-25T11:34:22.739Z,7.30
2022-08-25T11:37:30.702Z,6.28
2022-08-25T11:40:50.087Z,6.20
2022-08-25T11:44:54.033Z,7.35
2022-08-25T11:48:26.910Z,7.63
2022-08-25T11:51:33.920Z,6.90
2022-08-25T11:54:44.581Z,6.53
2022-08-25T11:57:53.409Z,7.18
2022-08-25T12:00:58.564Z,6.25
2022-08-25T12:04:33.557Z,6.10
2022-08-25T12:07:52.100Z,6.72
2022-08-25T12:11:10.881Z,6.55
2022-08-25T12:14:18.305Z,7.07
2022-08-25T12:17:28.239Z,6.45
2022-08-25T12:20:55.143Z,5.95
2022-08-25T12:24:03.084Z,6.85
2022-08-25T12:27:08.837Z,6.80
2022-08-25T12:33:49.792Z,7.80
2022-08-25T12:37:13.783Z,6.38
2022-08-25T12:40:34.903Z,6.32
2022-08-25T12:43:45.321Z,6.32
2022-08-25T12:46:51.290Z,5.63
2022-08-25T12:50:13.634Z,5.68
2022-08-25T12:53:38.537Z,5.75
2022-08-25T12:56:50.241Z,5.50
2022-08-25T13:00:01.128Z,5.53
2022-08-25T13:04:09.390Z,5.30
2022-08-25T13:07:23.246Z,5.38
2022-08-25T13:10:57.411Z,5.50
2022-08-25T13:14:22.466Z,5.50
2022-08-25T13:17:28.999Z,5.40
2022-08-25T13:20:30.980Z,5.93
2022-08-25T13:23:38.276Z,5.32
2022-08-25T13:26:48.175Z,5.28
2022-08-25T13:30:03.703Z,5.82
2022-08-25T13:33:20.732Z,6.17
2022-08-25T13:36:52.090Z,5.30
2022-08-25T13:40:18.741Z,5.57
2022-08-25T13:43:27.462Z,5.20
2022-08-25T13:46:35.551Z,5.32
2022-08-25T13:49:39.939Z,5.20
2022-08-25T13:52:45.168Z,5.10
2022-08-25T13:55:59.804Z,5.22
2022-08-25T13:59:03.866Z,5.75
2022-08-25T14:02:09.501Z,5.55
2022-08-25T14:05:42.655Z,5.43
2022-08-25T14:09:03.650Z,5.32
2022-08-25T14:12:07.576Z,5.18
2022-08-25T14:15:17.289Z,4.90
2022-08-25T14:18:26.987Z,5.30
2022-08-25T14:21:31.335Z,5.30
2022-08-25T14:24:40.933Z,5.70
2022-08-25T14:28:06.776Z,5.63
2022-08-25T14:31:17.947Z,5.18
2022-08-25T14:34:36.704Z,5.00
2022-08-25T14:37:38.498Z,5.20
2022-08-25T14:40:42.273Z,4.70
2022-08-25T14:43:44.390Z,5.25
2022-08-25T14:46:54.187Z,4.70
2022-08-25T14:49:55.865Z,4.97
2022-08-25T14:52:58.259Z,4.80
2022-08-25T14:56:01.400Z,5.57
2022-08-25T14:59:12.676Z,5.20
2022-08-25T15:02:19.885Z,4.72
2022-08-25T15:05:29.312Z,4.63
2022-08-25T15:08:50.893Z,4.97
2022-08-25T15:11:56.900Z,4.90
2022-08-25T15:14:58.572Z,5.03
2022-08-25T15:18:01.267Z,4.72
2022-08-25T15:21:03.502Z,4.35
2022-08-25T15:24:07.056Z,4.80
2022-08-25T15:27:20.439Z,4.57
2022-08-25T15:30:30.983Z,5.32
2022-08-25T15:33:36.065Z,5.25
2022-08-25T15:36:37.976Z,4.85
2022-08-25T15:39:41.974Z,5.40
2022-08-25T15:42:49.282Z,4.78
2022-08-25T15:45:51.588Z,4.90
2022-08-25T15:48:53.376Z,4.78
2022-08-25T15:51:56.681Z,4.85
2022-08-25T15:54:59.900Z,4.82
2022-08-25T15:58:04.933Z,4.65
2022-08-25T16:01:07.240Z,4.90
2022-08-25T16:04:12.119Z,4.70
2022-08-25T16:07:13.840Z,5.07
2022-08-25T16:10:17.748Z,5.68
2022-08-25T16:13:19.571Z,4.93
2022-08-25T16:16:25.506Z,5.00
2022-08-25T16:19:33.380Z,5.03
2022-08-25T16:22:39.829Z,5.00
2022-08-25T16:25:52.873Z,5.30
2022-08-25T16:28:59.909Z,4.70
2022-08-25T16:32:06.976Z,5.15
2022-08-25T16:35:11.002Z,5.18
2022-08-25T16:38:13.194Z,4.80
2022-08-25T16:41:22.625Z,5.05
2022-08-25T16:44:24.561Z,5.03
2022-08-25T16:47:28.614Z,4.80
2022-08-25T16:50:31.147Z,4.93
2022-08-25T16:53:54.851Z,5.55
2022-08-25T16:57:00.754Z,4.47
2022-08-25T17:00:04.784Z,4.45
2022-08-25T17:03:06.847Z,4.78
2022-08-25T17:06:08.797Z,4.82
2022-08-25T17:09:12.630Z,4.90
2022-08-25T17:12:16.906Z,4.90
2022-08-25T17:15:23.790Z,5.10
2022-08-25T17:18:25.866Z,5.15
2022-08-25T17:21:31.417Z,5.00
2022-08-25T17:24:33.872Z,4.47
2022-08-25T17:27:35.977Z,4.40
2022-08-25T17:30:39.064Z,5.00
2022-08-25T17:33:42.395Z,4.57
2022-08-25T17:36:44.212Z,4.55
2022-08-25T17:39:46.088Z,5.13
2022-08-25T17:42:48.054Z,4.88
2022-08-25T17:45:50.345Z,5.00
2022-08-25T17:48:55.317Z,5.18
2022-08-25T17:51:57.222Z,4.90
2022-08-25T17:54:59.053Z,5.20
2022-08-25T17:58:02.981Z,5.00
2022-08-25T18:01:05.580Z,4.93
2022-08-25T18:04:07.969Z,5.50
2022-08-25T18:07:19.688Z,4.97
2022-08-25T18:10:21.454Z,5.85
2022-08-25T18:13:23.948Z,5.50
2022-08-25T18:16:26.740Z,5.10
2022-08-25T18:19:28.502Z,5.10
2022-08-25T18:22:31.993Z,5.20
2022-08-25T18:25:34.754Z,4.78
2022-08-25T18:28:36.470Z,5.40
2022-08-25T18:31:38.257Z,5.40
2022-08-25T18:34:40.368Z,4.90
2022-08-25T18:38:00.769Z,5.32
2022-08-25T18:41:06.482Z,5.07
2022-08-25T18:44:10.634Z,4.78
2022-08-25T18:47:12.614Z,5.13
2022-08-25T18:50:15.301Z,5.03
2022-08-25T18:53:17.993Z,5.15
2022-08-25T18:56:33.376Z,4.88
2022-08-25T18:59:35.280Z,5.60
2022-08-25T19:02:37.076Z,5.00
2022-08-25T19:05:41.486Z,5.22
2022-08-25T19:08:46.970Z,4.93
2022-08-25T19:11:49.105Z,5.53
2022-08-25T19:14:51.065Z,5.15
2022-08-25T19:17:53.767Z,5.32
2022-08-25T19:20:55.451Z,5.40
2022-08-25T19:23:57.175Z,5.28
2022-08-25T19:27:02.324Z,5.68
2022-08-25T19:30:07.261Z,6.35
2022-08-25T19:33:11.527Z,5.75
2022-08-25T19:36:14.447Z,5.45
2022-08-25T19:39:16.447Z,6.03
2022-08-25T19:42:37.345Z,5.70
2022-08-25T19:45:40.913Z,5.68
2022-08-25T19:48:42.708Z,5.38
2022-08-25T19:51:51.142Z,5.75
2022-08-25T19:54:53.528Z,5.88
2022-08-25T19:57:55.376Z,5.63
2022-08-25T20:00:57.073Z,5.65
2022-08-25T20:03:58.805Z,6.28
2022-08-25T20:07:00.737Z,6.28
2022-08-25T20:10:05.953Z,5.70
2022-08-25T20:13:08.876Z,6.18
2022-08-25T20:16:10.909Z,5.95
2022-08-25T20:19:12.999Z,5.90
2022-08-25T20:22:18.684Z,6.32
2022-08-25T20:25:24.439Z,6.10
2022-08-25T20:28:26.265Z,6.40
2022-08-25T20:31:29.533Z,6.00
2022-08-25T20:34:31.649Z,6.47
2022-08-25T20:37:34.370Z,6.03
2022-08-25T20:40:36.264Z,6.10
2022-08-25T20:43:40.160Z,6.40
2022-08-25T20:46:41.830Z,6.13
2022-08-25T20:49:44.842Z,5.93
2022-08-25T20:52:46.507Z,6.30
2022-08-25T20:55:50.382Z,5.78
2022-08-25T20:58:52.188Z,5.65
2022-08-25T21:01:55.133Z,6.00
2022-08-25T21:04:57.614Z,5.90
2022-08-25T21:07:59.296Z,5.90
2022-08-25T21:11:00.902Z,5.72
2022-08-25T21:14:03.044Z,5.85
2022-08-25T21:17:10.554Z,6.47
2022-08-25T21:23:15.292Z,6.50
2022-08-25T21:26:19.608Z,6.38
2022-08-25T21:29:23.270Z,6.38
2022-08-25T21:32:25.853Z,6.68
2022-08-25T21:35:28.355Z,7.10
2022-08-25T21:38:31.526Z,6.40
2022-08-25T21:41:34.932Z,6.35
2022-08-25T21:44:38.620Z,6.55
2022-08-25T21:47:42.472Z,6.38
2022-08-25T21:50:44.386Z,6.55
2022-08-25T21:53:47.317Z,6.70
2022-08-25T21:56:50.981Z,6.30
2022-08-25T21:59:52.633Z,6.47
2022-08-25T22:02:54.477Z,6.47
2022-08-25T22:05:57.230Z,6.18
2022-08-25T22:08:58.888Z,6.20
2022-08-25T22:12:00.762Z,6.93
2022-08-25T22:15:05.976Z,6.07
2022-08-25T22:18:07.658Z,7.13
2022-08-25T22:21:09.776Z,6.82
2022-08-25T22:24:12.804Z,6.63
2022-08-25T22:27:15.523Z,6.88
2022-08-25T22:30:18.774Z,7.28
2022-08-25T22:33:20.393Z,6.75
2022-08-25T22:36:28.483Z,6.85
2022-08-25T22:39:30.974Z,6.82
2022-08-25T22:42:33.777Z,7.07
2022-08-25T22:45:35.909Z,7.00
2022-08-25T22:48:38.584Z,7.35
2022-08-25T22:51:40.341Z,6.85
2022-08-25T22:54:42.190Z,6.80
2022-08-25T22:57:44.026Z,6.45
2022-08-25T23:00:46.493Z,7.15
2022-08-25T23:03:48.626Z,7.35
2022-08-25T23:06:50.630Z,7.50
2022-08-25T23:09:53.038Z,7.57
2022-08-25T23:12:54.677Z,7.07
2022-08-25T23:15:56.287Z,7.15
2022-08-25T23:18:58.695Z,7.00
2022-08-25T23:22:10.601Z,7.53
2022-08-25T23:25:12.513Z,6.90
2022-08-25T23:28:15.300Z,6.93
2022-08-25T23:31:17.936Z,7.35
2022-08-25T23:34:19.587Z,7.70
2022-08-25T23:37:21.286Z,6.88
2022-08-25T23:40:23.014Z,6.80
2022-08-25T23:43:25.994Z,7.63
2022-08-25T23:46:29.562Z,6.80
2022-08-25T23:49:31.186Z,7.18
2022-08-25T23:52:33.381Z,7.47
2022-08-25T23:55:35.950Z,7.10
2022-08-25T23:58:37.620Z,7.35
